Time;durP1;ratioP1;P1;durP2;ratioP2;P2;SDS_P1;SDS_P2;PMS_P1;PMS_P2;Temp;Humidity;BMP_temperature;BMP_pressure;BME280_temperature;BME280_humidity;BME280_pressure;Samples;Min_cycle;Max_cycle;Signal;HPM_P1;HPM_P2
2024/02/05 00:27:15;;;;;;;0.10;0.10;;;;;;;;;;6368024;22;20007;-92
2024/02/05 00:29:47;;;;;;;0.00;0.00;;;;;;;;;;6366917;22;20042;-92
2024/02/05 00:32:16;;;;;;;0.05;0.05;;;;;;;;;;6367088;22;20023;-92
2024/02/05 00:34:47;;;;;;;0.00;0.00;;;;;;;;;;6365442;22;20053;-92
2024/02/05 00:37:17;;;;;;;0.00;0.00;;;;;;;;;;6364331;22;20034;-93
2024/02/05 00:39:46;;;;;;;0.00;0.00;;;;;;;;;;6365104;22;20045;-91
2024/02/05 00:42:14;;;;;;;0.00;0.00;;;;;;;;;;6365763;22;20026;-92
2024/02/05 00:44:42;;;;;;;0.65;0.65;;;;;;;;;;6367225;22;20022;-94
2024/02/05 00:47:12;;;;;;;0.00;0.00;;;;;;;;;;6367929;22;20003;-93
2024/02/05 00:49:41;;;;;;;3.72;1.08;;;;;;;;;;6366782;22;20006;-91
2024/02/05 00:52:12;;;;;;;0.10;0.10;;;;;;;;;;6366335;22;20038;-93
2024/02/05 00:54:44;;;;;;;3.83;0.40;;;;;;;;;;6366501;22;20091;-93
2024/02/05 00:57:15;;;;;;;0.00;0.00;;;;;;;;;;6366577;22;20031;-93
2024/02/05 00:59:51;;;;;;;0.08;0.08;;;;;;;;;;6366132;22;20073;-93
2024/02/05 01:02:23;;;;;;;1.55;0.90;;;;;;;;;;6365452;22;20026;-93
2024/02/05 01:04:52;;;;;;;0.00;0.00;;;;;;;;;;6365611;22;20029;-93
2024/02/05 01:07:20;;;;;;;0.00;0.00;;;;;;;;;;6366284;22;20052;-92
2024/02/05 01:09:50;;;;;;;0.10;0.10;;;;;;;;;;6366025;22;20074;-92
2024/02/05 01:12:35;;;;;;;4.65;3.65;;;;;;;;;;6365144;22;20034;-92
2024/02/05 01:15:04;;;;;;;0.10;0.10;;;;;;;;;;6365194;22;20057;-92
2024/02/05 01:17:32;;;;;;;0.00;0.00;;;;;;;;;;6362331;22;20040;-91
2024/02/05 01:20:10;;;;;;;0.00;0.00;;;;;;;;;;6356447;22;20078;-91
2024/02/05 01:22:41;;;;;;;4.10;0.55;;;;;;;;;;6354352;22;20023;-91
2024/02/05 01:25:11;;;;;;;0.10;0.10;;;;;;;;;;6356418;22;20056;-93
2024/02/05 01:27:40;;;;;;;10.60;9.80;;;;;;;;;;6356153;22;20359;-93
2024/02/05 01:30:10;;;;;;;0.00;0.00;;;;;;;;;;6352373;22;20097;-92
2024/02/05 01:32:43;;;;;;;0.00;0.00;;;;;;;;;;6355333;22;20049;-91
2024/02/05 01:35:18;;;;;;;0.00;0.00;;;;;;;;;;6355606;22;20044;-91
2024/02/05 01:37:47;;;;;;;0.30;0.30;;;;;;;;;;6355134;22;20300;-90
2024/02/05 01:40:17;;;;;;;0.00;0.00;;;;;;;;;;6359412;22;20078;-92
2024/02/05 01:42:45;;;;;;;0.30;0.20;;;;;;;;;;6358030;22;20048;-92
2024/02/05 01:45:21;;;;;;;0.00;0.00;;;;;;;;;;6359243;22;20072;-93
2024/02/05 01:47:55;;;;;;;0.10;0.10;;;;;;;;;;6359957;22;20066;-91
2024/02/05 01:50:29;;;;;;;0.00;0.00;;;;;;;;;;6361839;22;20025;-93
2024/02/05 01:52:57;;;;;;;0.08;0.08;;;;;;;;;;6356077;22;20049;-91
2024/02/05 01:55:39;;;;;;;3.00;1.05;;;;;;;;;;6357836;22;20030;-91
2024/02/05 01:58:07;;;;;;;2.30;0.38;;;;;;;;;;6357510;22;20054;-90
2024/02/05 02:00:34;;;;;;;0.45;0.32;;;;;;;;;;6357952;22;20022;-92
2024/02/05 02:03:06;;;;;;;0.03;0.03;;;;;;;;;;6358856;22;20007;-89
2024/02/05 02:05:36;;;;;;;0.00;0.00;;;;;;;;;;6364967;22;20026;-92
2024/02/05 02:08:06;;;;;;;0.00;0.00;;;;;;;;;;6365021;22;20018;-91
2024/02/05 02:10:40;;;;;;;0.10;0.10;;;;;;;;;;6364266;22;20041;-93
2024/02/05 02:13:11;;;;;;;0.10;0.10;;;;;;;;;;6362025;22;20065;-90
2024/02/05 02:15:42;;;;;;;0.70;0.45;;;;;;;;;;6358392;22;20019;-90
2024/02/05 02:18:13;;;;;;;0.00;0.00;;;;;;;;;;6358450;22;20119;-91
2024/02/05 02:20:45;;;;;;;0.00;0.00;;;;;;;;;;6358148;22;20419;-91
2024/02/05 02:23:22;;;;;;;0.13;0.13;;;;;;;;;;6359395;22;20018;-91
2024/02/05 02:25:50;;;;;;;0.10;0.10;;;;;;;;;;6360700;22;20034;-92
2024/02/05 02:28:20;;;;;;;0.40;0.30;;;;;;;;;;6361478;22;20064;-91
2024/02/05 02:30:52;;;;;;;0.00;0.00;;;;;;;;;;6361487;22;20026;-90
2024/02/05 02:33:41;;;;;;;0.00;0.00;;;;;;;;;;6360150;22;20019;-91
2024/02/05 02:36:19;;;;;;;0.40;0.40;;;;;;;;;;6360679;22;20019;-92
2024/02/05 02:39:13;;;;;;;0.10;0.10;;;;;;;;;;6360321;22;20074;-90
2024/02/05 02:41:50;;;;;;;0.10;0.10;;;;;;;;;;6360792;22;20044;-91
2024/02/05 02:44:19;;;;;;;0.05;0.05;;;;;;;;;;6359783;22;20103;-92
2024/02/05 02:46:47;;;;;;;0.00;0.00;;;;;;;;;;6360030;22;20030;-92
2024/02/05 02:49:18;;;;;;;0.43;0.30;;;;;;;;;;6357805;22;20018;-91
2024/02/05 02:51:50;;;;;;;0.00;0.00;;;;;;;;;;6358096;22;20019;-92
2024/02/05 02:54:22;;;;;;;0.47;0.17;;;;;;;;;;6357500;22;20026;-90
2024/02/05 02:56:54;;;;;;;0.10;0.10;;;;;;;;;;6357683;22;20015;-92
2024/02/05 02:59:22;;;;;;;0.00;0.00;;;;;;;;;;6356056;22;20023;-90
2024/02/05 03:01:51;;;;;;;0.05;0.05;;;;;;;;;;6351861;22;20073;-90
2024/02/05 03:04:18;;;;;;;0.85;0.30;;;;;;;;;;6345774;22;20066;-90
2024/02/05 03:06:48;;;;;;;0.00;0.00;;;;;;;;;;6344485;22;20483;-91
2024/02/05 03:12:39;;;;;;;2.20;0.60;;;;;;;;;;6355848;22;20022;-90
2024/02/05 03:15:09;;;;;;;0.00;0.00;;;;;;;;;;6354650;22;20022;-92
2024/02/05 03:17:38;;;;;;;0.00;0.00;;;;;;;;;;6354186;22;20023;-92
2024/02/05 03:20:07;;;;;;;0.10;0.10;;;;;;;;;;6352826;22;20027;-89
2024/02/05 03:22:36;;;;;;;0.00;0.00;;;;;;;;;;6362975;22;20087;-90
2024/02/05 03:25:05;;;;;;;0.15;0.15;;;;;;;;;;6356426;22;20061;-91
2024/02/05 03:27:35;;;;;;;0.10;0.10;;;;;;;;;;6348456;22;20034;-92
2024/02/05 03:30:04;;;;;;;0.10;0.10;;;;;;;;;;6349396;22;20017;-90
2024/02/05 03:32:34;;;;;;;11.20;7.90;;;;;;;;;;6345503;22;20018;-90
2024/02/05 03:35:07;;;;;;;0.00;0.00;;;;;;;;;;6347318;22;20019;-90
2024/02/05 03:37:34;;;;;;;0.28;0.28;;;;;;;;;;6346814;22;20233;-90
2024/02/05 03:40:05;;;;;;;0.00;0.00;;;;;;;;;;6346872;22;20023;-91
2024/02/05 03:42:33;;;;;;;0.10;0.10;;;;;;;;;;6350890;22;20244;-90
2024/02/05 03:45:02;;;;;;;0.20;0.20;;;;;;;;;;6347972;22;20034;-90
2024/02/05 03:47:30;;;;;;;0.00;0.00;;;;;;;;;;6346654;22;20031;-90
2024/02/05 03:49:58;;;;;;;0.05;0.05;;;;;;;;;;6348170;22;20019;-91
2024/02/05 03:52:27;;;;;;;0.35;0.35;;;;;;;;;;6347520;22;20030;-90
2024/02/05 03:54:55;;;;;;;0.75;0.35;;;;;;;;;;6349105;22;20026;-90
2024/02/05 04:00:44;;;;;;;0.03;0.03;;;;;;;;;;6347507;22;20021;-91
2024/02/05 04:03:12;;;;;;;0.10;0.10;;;;;;;;;;6344823;22;20076;-90
2024/02/05 04:05:40;;;;;;;1.00;0.47;;;;;;;;;;6346600;22;20244;-90
2024/02/05 04:08:11;;;;;;;2.15;1.45;;;;;;;;;;6346149;22;20019;-91
2024/02/05 04:10:39;;;;;;;0.15;0.15;;;;;;;;;;6346411;22;20300;-90
2024/02/05 04:13:07;;;;;;;5.55;1.27;;;;;;;;;;6347072;22;20087;-90
2024/02/05 04:15:42;;;;;;;0.00;0.00;;;;;;;;;;6347071;22;20091;-90
2024/02/05 04:18:15;;;;;;;0.00;0.00;;;;;;;;;;6346667;22;20095;-90
2024/02/05 04:20:44;;;;;;;0.00;0.00;;;;;;;;;;6346702;22;20022;-90
2024/02/05 04:23:13;;;;;;;7.90;0.95;;;;;;;;;;6346893;22;20102;-91
2024/02/05 04:25:44;;;;;;;3.88;0.55;;;;;;;;;;6344757;22;20246;-91
2024/02/05 04:28:15;;;;;;;1.35;0.63;;;;;;;;;;6342201;22;20354;-91
2024/02/05 04:30:44;;;;;;;0.22;0.22;;;;;;;;;;6343060;22;20023;-90
2024/02/05 04:33:12;;;;;;;0.40;0.40;;;;;;;;;;6343399;22;20026;-90
2024/02/05 04:35:39;;;;;;;2.08;0.90;;;;;;;;;;6346618;22;20026;-91
2024/02/05 04:38:09;;;;;;;8.10;1.35;;;;;;;;;;6356561;22;20019;-90
2024/02/05 04:56:09;;;;;;;0.77;0.57;;;;;;;;;;6310375;22;20070;-90
2024/02/05 04:58:38;;;;;;;0.75;0.38;;;;;;;;;;6352112;22;20102;-91
2024/02/05 05:01:09;;;;;;;4.68;0.15;;;;;;;;;;6361121;22;20015;-91
2024/02/05 05:03:39;;;;;;;0.00;0.00;;;;;;;;;;6351372;22;20070;-91
2024/02/05 05:06:07;;;;;;;0.00;0.00;;;;;;;;;;6349384;22;20019;-91
2024/02/05 05:08:35;;;;;;;0.08;0.08;;;;;;;;;;6361151;22;20011;-90
2024/02/05 05:11:03;;;;;;;1.95;1.85;;;;;;;;;;6357908;22;20007;-92
2024/02/05 05:13:34;;;;;;;1.27;1.08;;;;;;;;;;6365188;22;20082;-91
2024/02/05 05:16:31;;;;;;;0.52;0.52;;;;;;;;;;6356552;22;20018;-91
2024/02/05 05:19:17;;;;;;;6.05;0.30;;;;;;;;;;6360619;22;20052;-91
2024/02/05 05:22:00;;;;;;;0.20;0.10;;;;;;;;;;6361924;22;20037;-91
2024/02/05 05:24:55;;;;;;;0.00;0.00;;;;;;;;;;6346229;22;20034;-91
2024/02/05 05:30:36;;;;;;;1.73;1.63;;;;;;;;;;6328910;22;20063;-91
2024/02/05 05:33:05;;;;;;;0.00;0.00;;;;;;;;;;6356562;22;20122;-91
2024/02/05 05:35:35;;;;;;;1.02;0.25;;;;;;;;;;6366054;22;20014;-91
2024/02/05 05:38:05;;;;;;;0.20;0.20;;;;;;;;;;6367578;22;20010;-90
2024/02/05 05:40:34;;;;;;;6.72;1.30;;;;;;;;;;6394308;22;20349;-91
2024/02/05 05:43:08;;;;;;;0.10;0.10;;;;;;;;;;6356615;22;20179;-90
2024/02/05 05:45:37;;;;;;;2.38;0.45;;;;;;;;;;6351279;22;20308;-90
2024/02/05 05:48:10;;;;;;;8.07;2.03;;;;;;;;;;6351940;22;20098;-91
2024/02/05 05:50:38;;;;;;;11.13;4.80;;;;;;;;;;6348722;22;20110;-90
2024/02/05 05:53:19;;;;;;;8.40;1.95;;;;;;;;;;6351565;22;20022;-91
2024/02/05 05:55:52;;;;;;;0.73;0.73;;;;;;;;;;6351698;22;20032;-91
2024/02/05 05:58:22;;;;;;;0.10;0.10;;;;;;;;;;6360507;22;20026;-91
2024/02/05 06:00:49;;;;;;;0.10;0.10;;;;;;;;;;6359411;22;20026;-90
2024/02/05 06:03:19;;;;;;;0.60;0.60;;;;;;;;;;6377476;22;20049;-89
2024/02/05 06:05:49;;;;;;;0.08;0.08;;;;;;;;;;6374418;22;20018;-90
2024/02/05 06:08:21;;;;;;;0.98;0.38;;;;;;;;;;6350481;22;20343;-89
2024/02/05 06:10:51;;;;;;;0.45;0.45;;;;;;;;;;6354775;22;20277;-89
2024/02/05 06:13:24;;;;;;;20.35;2.58;;;;;;;;;;6352583;22;20068;-91
2024/02/05 06:16:11;;;;;;;0.20;0.20;;;;;;;;;;6358065;22;20048;-91
2024/02/05 06:18:44;;;;;;;0.10;0.10;;;;;;;;;;6354233;22;20051;-90
2024/02/05 06:21:27;;;;;;;2.03;1.85;;;;;;;;;;6351264;22;20018;-91
2024/02/05 06:23:58;;;;;;;5.38;0.73;;;;;;;;;;6375457;22;20431;-90
2024/02/05 06:26:39;;;;;;;4.03;2.45;;;;;;;;;;6347888;22;20076;-91
2024/02/05 06:29:07;;;;;;;0.57;0.28;;;;;;;;;;6351548;22;20228;-90
2024/02/05 06:31:39;;;;;;;0.20;0.20;;;;;;;;;;6354703;22;20083;-90
2024/02/05 06:34:09;;;;;;;0.13;0.10;;;;;;;;;;6350534;22;20041;-91
2024/02/05 06:36:37;;;;;;;0.00;0.00;;;;;;;;;;6344991;22;20022;-91
2024/02/05 06:39:12;;;;;;;0.20;0.20;;;;;;;;;;6375012;22;20036;-91
2024/02/05 06:41:39;;;;;;;3.53;3.30;;;;;;;;;;6346689;22;20022;-92
2024/02/05 06:44:08;;;;;;;4.25;2.28;;;;;;;;;;6376873;22;20022;-92
2024/02/05 06:46:37;;;;;;;0.10;0.10;;;;;;;;;;6350070;22;20278;-93
2024/02/05 06:49:04;;;;;;;0.10;0.10;;;;;;;;;;6349884;22;20399;-91
2024/02/05 06:51:33;;;;;;;2.63;0.65;;;;;;;;;;6378406;22;20434;-91
2024/02/05 06:54:05;;;;;;;0.08;0.08;;;;;;;;;;6369009;22;20078;-94
2024/02/05 06:56:36;;;;;;;0.70;0.52;;;;;;;;;;6393140;22;20050;-91
2024/02/05 06:59:06;;;;;;;28.52;1.23;;;;;;;;;;6368654;22;20115;-90
2024/02/05 07:01:40;;;;;;;0.10;0.10;;;;;;;;;;6395300;22;20022;-92
2024/02/05 07:04:13;;;;;;;1.25;0.43;;;;;;;;;;6371517;22;20017;-92
2024/02/05 07:06:55;;;;;;;8.35;1.35;;;;;;;;;;6372305;22;20010;-92
2024/02/05 07:09:28;;;;;;;0.10;0.10;;;;;;;;;;6371043;22;20116;-92
2024/02/05 07:11:59;;;;;;;0.00;0.00;;;;;;;;;;6371033;22;20022;-91
2024/02/05 07:14:54;;;;;;;0.65;0.65;;;;;;;;;;6371405;22;20029;-92
2024/02/05 07:17:33;;;;;;;0.10;0.10;;;;;;;;;;6396364;22;20018;-92
2024/02/05 07:20:16;;;;;;;0.20;0.20;;;;;;;;;;6372301;22;20033;-94
2024/02/05 07:22:48;;;;;;;2.65;1.25;;;;;;;;;;6366840;22;20007;-91
2024/02/05 07:25:16;;;;;;;33.70;7.50;;;;;;;;;;6356082;22;20017;-89
2024/02/05 07:27:46;;;;;;;6.13;4.38;;;;;;;;;;6359666;22;20033;-90
2024/02/05 07:30:14;;;;;;;2.17;0.63;;;;;;;;;;6361777;22;20015;-90
2024/02/05 07:32:44;;;;;;;2.30;0.30;;;;;;;;;;6360974;22;20070;-91
2024/02/05 07:35:22;;;;;;;3.22;0.60;;;;;;;;;;6358476;22;20021;-90
2024/02/05 07:37:50;;;;;;;1.63;0.77;;;;;;;;;;6359954;22;20014;-92
2024/02/05 07:40:24;;;;;;;0.10;0.10;;;;;;;;;;6360230;22;20030;-92
2024/02/05 07:42:54;;;;;;;1.73;0.38;;;;;;;;;;6354082;22;20094;-92
2024/02/05 07:45:24;;;;;;;0.30;0.30;;;;;;;;;;6364545;22;20083;-91
2024/02/05 07:48:26;;;;;;;0.00;0.00;;;;;;;;;;6364158;22;20023;-91
2024/02/05 07:51:02;;;;;;;0.05;0.05;;;;;;;;;;6364692;22;20045;-92
2024/02/05 07:53:40;;;;;;;0.30;0.25;;;;;;;;;;6365939;22;20066;-92
2024/02/05 07:56:27;;;;;;;4.57;0.88;;;;;;;;;;6364990;22;20010;-93
2024/02/05 07:59:03;;;;;;;2.25;1.33;;;;;;;;;;6365579;22;20042;-88
2024/02/05 08:01:46;;;;;;;0.00;0.00;;;;;;;;;;6361801;22;20018;-92
2024/02/05 08:04:17;;;;;;;0.13;0.13;;;;;;;;;;6349175;22;20023;-91
2024/02/05 08:06:45;;;;;;;0.55;0.55;;;;;;;;;;6344732;22;20030;-91
2024/02/05 08:09:15;;;;;;;2.58;0.93;;;;;;;;;;6345624;22;20018;-91
2024/02/05 08:11:44;;;;;;;2.75;0.52;;;;;;;;;;6343691;22;20066;-92
2024/02/05 16:19:44;;;;;;;9.20;4.90;;;;;;;;;;6351394;22;20026;-90
2024/02/05 16:25:53;;;;;;;0.00;0.00;;;;;;;;;;6360943;22;20015;-90
2024/02/05 16:31:37;;;;;;;;;;;;;;;;;;;;;
2024/02/05 16:34:48;;;;;;;0.65;0.43;;;;;;;;;;6304815;22;20022;-91
2024/02/05 16:38:01;;;;;;;1.65;1.10;;;;;;;;;;6348399;22;20022;-91
2024/02/05 16:40:59;;;;;;;3.72;1.77;;;;;;;;;;6336557;22;20101;-91
2024/02/05 16:43:54;;;;;;;0.28;0.28;;;;;;;;;;6318602;22;20019;-91
2024/02/05 16:47:02;;;;;;;3.50;1.30;;;;;;;;;;6279172;22;20107;-89
2024/02/05 16:50:20;;;;;;;24.63;1.33;;;;;;;;;;6278177;22;20018;-91
2024/02/05 16:53:41;;;;;;;0.20;0.20;;;;;;;;;;6239449;22;20717;-91
2024/02/05 16:56:52;;;;;;;;;;;;;;;;;;6199452;22;20019;-90
2024/02/05 18:54:00;;;;;;;0.63;0.63;;;;;;;;;;6346240;22;20019;-90
2024/02/05 18:56:34;;;;;;;1.10;1.08;;;;;;;;;;6343055;22;20071;-89
2024/02/05 18:59:21;;;;;;;0.45;0.43;;;;;;;;;;6342132;22;20014;-90
2024/02/05 19:02:07;;;;;;;0.47;0.47;;;;;;;;;;6351564;22;20007;-90
2024/02/05 19:04:44;;;;;;;0.00;0.00;;;;;;;;;;6345430;22;20018;-92
2024/02/05 19:07:17;;;;;;;0.10;0.10;;;;;;;;;;6355764;22;20074;-92
2024/02/05 19:09:44;;;;;;;3.05;2.05;;;;;;;;;;6359961;22;20019;-93
2024/02/05 19:12:18;;;;;;;0.22;0.22;;;;;;;;;;6356460;22;20026;-91
2024/02/05 19:14:46;;;;;;;1.58;0.57;;;;;;;;;;6348694;22;20019;-91
2024/02/05 19:17:17;;;;;;;0.20;0.20;;;;;;;;;;6349632;22;20031;-92
2024/02/05 19:19:48;;;;;;;0.95;0.52;;;;;;;;;;6352581;22;20138;-92
2024/02/05 19:22:39;;;;;;;0.15;0.15;;;;;;;;;;6345667;22;20061;-91
2024/02/05 19:25:29;;;;;;;0.20;0.20;;;;;;;;;;6351914;22;20026;-92
2024/02/05 19:27:57;;;;;;;1.02;0.88;;;;;;;;;;6353064;22;20048;-91
2024/02/05 19:30:31;;;;;;;0.03;0.03;;;;;;;;;;6347755;22;20074;-93
2024/02/05 19:33:07;;;;;;;1.02;1.00;;;;;;;;;;6349745;22;20339;-91
2024/02/05 19:35:48;;;;;;;0.10;0.10;;;;;;;;;;6317584;22;20038;-92
2024/02/05 19:48:30;;;;;;;1.60;1.02;;;;;;;;;;6330629;22;20069;-93
2024/02/05 19:51:02;;;;;;;2.20;1.98;;;;;;;;;;6330726;22;20037;-91
2024/02/05 19:53:31;;;;;;;1.10;0.47;;;;;;;;;;6322474;22;20027;-91
2024/02/05 19:56:01;;;;;;;10.63;1.40;;;;;;;;;;6317312;22;20413;-92
2024/02/05 19:58:35;;;;;;;0.35;0.35;;;;;;;;;;6319613;22;20031;-92
2024/02/05 20:01:06;;;;;;;0.20;0.20;;;;;;;;;;6327044;22;20020;-91
2024/02/05 20:03:37;;;;;;;1.55;0.52;;;;;;;;;;6321837;22;20035;-92
2024/02/05 20:06:07;;;;;;;0.03;0.03;;;;;;;;;;6321864;22;20027;-91
2024/02/05 20:08:39;;;;;;;0.20;0.20;;;;;;;;;;6321681;22;20030;-91
2024/02/05 20:11:12;;;;;;;0.03;0.03;;;;;;;;;;6321019;22;20024;-90
2024/02/05 20:13:45;;;;;;;26.30;0.65;;;;;;;;;;6322907;22;20094;-89
2024/02/05 20:16:27;;;;;;;0.47;0.47;;;;;;;;;;6327529;22;20026;-89
2024/02/05 20:19:09;;;;;;;0.00;0.00;;;;;;;;;;6317838;22;20100;-89
2024/02/05 20:21:53;;;;;;;0.00;0.00;;;;;;;;;;6346555;22;20103;-89
2024/02/05 20:24:36;;;;;;;0.00;0.00;;;;;;;;;;6301357;22;20046;-89
2024/02/05 20:30:02;;;;;;;0.60;0.57;;;;;;;;;;6350836;22;20011;-89
2024/02/05 20:32:43;;;;;;;0.65;0.40;;;;;;;;;;6326791;22;20053;-90
2024/02/05 20:35:15;;;;;;;0.20;0.20;;;;;;;;;;6327543;22;20411;-90
2024/02/05 20:37:59;;;;;;;0.65;0.52;;;;;;;;;;6328495;22;20046;-88
2024/02/05 20:40:40;;;;;;;0.10;0.10;;;;;;;;;;6327380;22;20019;-91
2024/02/05 20:43:19;;;;;;;0.65;0.57;;;;;;;;;;6324397;22;20046;-89
2024/02/05 20:45:59;;;;;;;1.35;0.75;;;;;;;;;;6349540;22;20019;-89
2024/02/05 20:48:37;;;;;;;0.65;0.65;;;;;;;;;;6326268;22;20181;-89
2024/02/05 20:51:12;;;;;;;0.80;0.68;;;;;;;;;;6352855;22;20473;-89
2024/02/05 20:53:55;;;;;;;1.38;0.65;;;;;;;;;;6329304;22;20014;-90
2024/02/05 20:56:38;;;;;;;1.90;1.60;;;;;;;;;;6351264;22;20304;-91
2024/02/05 20:59:21;;;;;;;0.73;0.47;;;;;;;;;;6331256;22;20416;-89
2024/02/05 21:02:03;;;;;;;0.20;0.20;;;;;;;;;;6324623;22;20025;-89
2024/02/05 21:04:42;;;;;;;1.08;0.43;;;;;;;;;;6327568;22;20482;-88
2024/02/05 21:07:20;;;;;;;0.25;0.25;;;;;;;;;;6326557;22;20350;-89
2024/02/05 21:10:06;;;;;;;0.45;0.45;;;;;;;;;;6327651;22;20022;-89
2024/02/05 21:12:53;;;;;;;15.80;4.95;;;;;;;;;;6320037;22;20031;-89
2024/02/05 21:15:34;;;;;;;0.57;0.47;;;;;;;;;;6315946;22;20018;-89
2024/02/05 21:18:06;;;;;;;1.20;1.10;;;;;;;;;;6319178;22;20098;-89
2024/02/05 21:20:56;;;;;;;0.10;0.10;;;;;;;;;;6318974;22;20027;-89
2024/02/05 21:23:37;;;;;;;0.40;0.40;;;;;;;;;;6312479;22;20027;-88
2024/02/05 21:26:14;;;;;;;1.45;0.50;;;;;;;;;;6327498;22;20069;-88
2024/02/05 21:28:43;;;;;;;0.20;0.10;;;;;;;;;;6317817;22;20363;-89
2024/02/05 21:31:15;;;;;;;0.00;0.00;;;;;;;;;;6316050;22;20046;-89
2024/02/05 21:33:49;;;;;;;0.77;0.70;;;;;;;;;;6316984;22;20019;-89
2024/02/05 21:36:40;;;;;;;;;;;;;;;;;;;;;
2024/02/05 21:39:37;;;;;;;5.93;0.88;;;;;;;;;;6354293;22;20027;-90
2024/02/05 21:42:30;;;;;;;0.13;0.13;;;;;;;;;;6346438;22;20022;-89
2024/02/05 21:45:15;;;;;;;1.00;0.20;;;;;;;;;;6326241;22;20029;-90
2024/02/05 21:47:58;;;;;;;0.08;0.08;;;;;;;;;;6351584;22;20030;-90
2024/02/05 21:50:40;;;;;;;0.15;0.15;;;;;;;;;;6328519;22;20056;-88
2024/02/05 21:57:01;;;;;;;0.05;0.05;;;;;;;;;;6317088;22;20014;-88
2024/02/05 21:59:32;;;;;;;0.70;0.70;;;;;;;;;;6325464;22;20026;-89
2024/02/05 22:02:13;;;;;;;1.30;0.98;;;;;;;;;;6325630;22;20042;-89
2024/02/05 22:05:00;;;;;;;0.82;0.82;;;;;;;;;;6329336;22;20034;-89
2024/02/05 22:07:32;;;;;;;0.00;0.00;;;;;;;;;;6335682;22;20080;-89
2024/02/05 22:10:07;;;;;;;1.55;1.00;;;;;;;;;;6327865;22;20023;-89
2024/02/05 22:12:37;;;;;;;0.35;0.35;;;;;;;;;;6324379;22;20019;-89
2024/02/05 22:15:07;;;;;;;0.95;0.43;;;;;;;;;;6350942;22;20023;-90
2024/02/05 22:17:53;;;;;;;0.70;0.65;;;;;;;;;;6327707;22;20329;-89
2024/02/05 22:20:38;;;;;;;1.00;0.40;;;;;;;;;;6325383;22;20053;-89
2024/02/05 22:23:19;;;;;;;0.75;0.75;;;;;;;;;;6326060;22;20070;-89
2024/02/05 22:25:52;;;;;;;0.30;0.30;;;;;;;;;;6321913;22;20018;-88
2024/02/05 22:28:22;;;;;;;0.65;0.65;;;;;;;;;;6321719;22;20403;-89
2024/02/05 22:30:54;;;;;;;0.63;0.47;;;;;;;;;;6323802;22;20019;-88
2024/02/05 22:33:24;;;;;;;1.88;1.65;;;;;;;;;;6320685;22;20030;-88
2024/02/05 22:36:03;;;;;;;0.10;0.10;;;;;;;;;;6345958;22;20022;-91
2024/02/05 22:38:37;;;;;;;13.52;2.78;;;;;;;;;;6322518;22;20034;-89
2024/02/05 22:41:07;;;;;;;0.22;0.22;;;;;;;;;;6321569;22;20026;-89
2024/02/05 22:43:39;;;;;;;1.25;0.43;;;;;;;;;;6322422;22;20033;-88
2024/02/05 22:46:12;;;;;;;0.50;0.50;;;;;;;;;;6324168;22;20093;-88
2024/02/05 22:48:47;;;;;;;0.05;0.05;;;;;;;;;;6322774;22;20030;-88
2024/02/05 22:51:28;;;;;;;3.70;1.95;;;;;;;;;;6331586;22;20066;-88
2024/02/05 22:54:07;;;;;;;1.15;0.43;;;;;;;;;;6347349;22;20056;-89
2024/02/05 22:56:36;;;;;;;1.75;0.40;;;;;;;;;;6317556;22;20022;-89
2024/02/05 22:59:12;;;;;;;0.32;0.22;;;;;;;;;;6316360;22;20097;-88
2024/02/05 23:01:54;;;;;;;0.52;0.52;;;;;;;;;;6320586;22;20332;-89
2024/02/05 23:04:30;;;;;;;0.95;0.88;;;;;;;;;;6320689;22;20051;-90
2024/02/05 23:07:03;;;;;;;1.63;0.68;;;;;;;;;;6321465;22;20034;-91
2024/02/05 23:09:32;;;;;;;0.20;0.20;;;;;;;;;;6322854;22;20412;-89
2024/02/05 23:12:00;;;;;;;0.10;0.10;;;;;;;;;;6322354;22;20022;-89
2024/02/05 23:14:32;;;;;;;4.50;1.45;;;;;;;;;;6326352;22;20093;-89
2024/02/05 23:17:08;;;;;;;;;;;;;;;;;;6330440;22;20019;-89
2024/02/05 23:19:42;;;;;;;2.05;1.95;;;;;;;;;;6325493;22;19914;-89
2024/02/05 23:22:14;;;;;;;0.00;0.00;;;;;;;;;;6320899;22;20023;-90
2024/02/05 23:24:47;;;;;;;0.55;0.35;;;;;;;;;;6320516;22;20083;-89
2024/02/05 23:30:40;;;;;;;0.50;0.50;;;;;;;;;;6360267;22;20060;-90
2024/02/05 23:33:08;;;;;;;0.73;0.60;;;;;;;;;;6322077;22;20300;-91
2024/02/05 23:38:58;;;;;;;0.17;0.17;;;;;;;;;;6350642;22;20327;-89
2024/02/05 23:41:30;;;;;;;0.50;0.47;;;;;;;;;;6324692;22;20023;-89
2024/02/05 23:43:57;;;;;;;0.10;0.10;;;;;;;;;;6326529;22;20080;-88
2024/02/05 23:46:27;;;;;;;0.38;0.38;;;;;;;;;;6326686;22;20019;-89
2024/02/05 23:49:00;;;;;;;0.20;0.20;;;;;;;;;;6336658;22;20021;-90
2024/02/05 23:51:55;;;;;;;0.20;0.20;;;;;;;;;;6337253;22;20006;-90
2024/02/05 23:54:27;;;;;;;0.03;0.03;;;;;;;;;;6328293;22;20304;-90
2024/02/05 23:56:55;;;;;;;1.23;1.23;;;;;;;;;;6321314;22;20073;-89
2024/02/05 23:59:26;;;;;;;5.72;3.55;;;;;;;;;;6322531;22;20031;-91
